Flemington, MO (65650)

06:13 CDT le 01 septembre 2014 (GMT -0500)
City Limits | Change Station
CLOSE
Current Station
Stations météorologiques personnelles
Location: Bolivar, MO
Altitude: 1089 ft
Stations météo à proximité

Alt. 1089 ft 37.62 °N, 93.43 °W | Updated 59 seconds ago

Pluie
Pluie
64.3 ° F
Paraît 64.3 ° F
N
5.0
Vent Variable Vent de NE

Aujourd'hui
Haut(e) -- | Bas -- ° F
--% Risque de précip.
Hier
Haut(e) -- | Bas -- ° F
Precip. -- pouce
6:43 AM 7:42 PM
Lune montante, 40% visible
Pression 29.97 pouce
Visibilité 10.0 Miles terrestres
Nuages Peu 7000 ft
Nuageux 9000 ft
Couvert 11000 ft
Point de rosée 62 ° F
Humidité 94%
Précipitations 0.58 pouce
Profondeur de la couche neigeuse Non disponible.
UV 0 sur 12
Pollen 10.60 sur 12
Ozone Bon
PM2.5 Moyen
Flu Activity Non disponible.
METAR KSGF 011052Z 01009KT 10SM VCTS RA FEW070 BKN090 OVC110 18/16 A3001 RMK AO2 PK WND 32041/0954 LTG DSNT ALQDS TSB02E36 SLP149 P0042 T01780161

More Conditions Fewer Conditions

Pression 29.97 pouce
Visibilité 10.0 Miles terrestres
Nuages Peu 7000 ft
Nuageux 9000 ft
Couvert 11000 ft
Point de rosée 62 ° F
Humidité 94%
Précipitations 0.58 pouce
Profondeur de la couche neigeuse Non disponible.
UV 0 sur 12
Pollen 10.60 sur 12
Ozone Bon
PM2.5 Moyen
Flu Activity Non disponible.
METAR KSGF 011052Z 01009KT 10SM VCTS RA FEW070 BKN090 OVC110 18/16 A3001 RMK AO2 PK WND 32041/0954 LTG DSNT ALQDS TSB02E36 SLP149 P0042 T01780161

More Conditions Fewer Conditions

10-Day Weather Forecast

Almanac

Astronomie

Sep. 01, 2014 Lever Coucher
Temps réel 06:43 CDT 19:42 CDT
Crépuscule civil 06:17 CDT 20:09 CDT
Crépuscule nautique 05:45 CDT 20:41 CDT
Crépuscule astronomique 05:11 CDT 21:14 CDT
Lune 13:22 CDT 23:52 CDT
Durée de lumière visible 13h 52m
Longueur du jour
12h 59m
Tomorrow will be 2m 19s shorter.
Lune montante, 40% of the Moon is Illuminated
Aujourd'hui
Lune montante
Sep 2
Premier quartier
Sep 8
Pleine lune
Sep 15
Dernier quartier
Sep 24
Nouveau

Extrêmes aujourd'hui

State Highs State Lows

Community

WunderPhotos

Upload Photos

1,749,188 Photos téléchargées !

Nearby

Qualité de l'air

  Qualité de l'air Indice de la qualité de l'air Polluant
Hier Bon
OZONE
Hier Bon
PM10
Actuel Moyen
PM2.5
Actuel Bon
OZONE
lundi Bon
OZONE
lundi Bon
PM2.5
mardi Bon
OZONE
mardi Bon
PM2.5
mercredi Bon
OZONE
mercredi Bon
PM2.5
jeudi Bon
OZONE
jeudi Bon
PM2.5

Épaisseur de neige

Station Depth Altitude
Pas de nouvelles chutes de neige

Activité sismique

Ville Distance Mag. Time & Date
No recent earthquake activity has been reported nearby.
Minimum magnitude displayed is 2.5.

Températures des eaux côtières

Lieu Température
Aucun rapport de station

Stations météo à proximité